地図

経路データ

SID SEASON NUMBER BASIN SUBBASIN NAME ISO_TIME NATURE LAT LON WMO_WIND WMO_PRES WMO_AGENCY TRACK_TYPE DIST2LAND LANDFALL IFLAG USA_AGENCY USA_ATCF_ID USA_LAT USA_LON USA_RECORD USA_STATUS USA_WIND USA_PRES USA_SSHS USA_R34_NE USA_R34_SE USA_R34_SW USA_R34_NW USA_R50_NE USA_R50_SE USA_R50_SW USA_R50_NW USA_R64_NE USA_R64_SE USA_R64_SW USA_R64_NW USA_POCI USA_ROCI USA_RMW USA_EYE TOKYO_LAT TOKYO_LON TOKYO_GRADE TOKYO_WIND TOKYO_PRES TOKYO_R50_DIR TOKYO_R50_LONG TOKYO_R50_SHORT TOKYO_R30_DIR TOKYO_R30_LONG TOKYO_R30_SHORT TOKYO_LAND CMA_LAT CMA_LON CMA_CAT CMA_WIND CMA_PRES HKO_LAT HKO_LON HKO_CAT HKO_WIND HKO_PRES NEWDELHI_LAT NEWDELHI_LON NEWDELHI_GRADE NEWDELHI_WIND NEWDELHI_PRES NEWDELHI_CI NEWDELHI_DP NEWDELHI_POCI REUNION_LAT REUNION_LON REUNION_TYPE REUNION_WIND REUNION_PRES REUNION_TNUM REUNION_CI REUNION_RMW REUNION_R34_NE REUNION_R34_SE REUNION_R34_SW REUNION_R34_NW REUNION_R50_NE REUNION_R50_SE REUNION_R50_SW REUNION_R50_NW REUNION_R64_NE REUNION_R64_SE REUNION_R64_SW REUNION_R64_NW BOM_LAT BOM_LON BOM_TYPE BOM_WIND BOM_PRES BOM_TNUM BOM_CI BOM_RMW BOM_R34_NE BOM_R34_SE BOM_R34_SW BOM_R34_NW BOM_R50_NE BOM_R50_SE BOM_R50_SW BOM_R50_NW BOM_R64_NE BOM_R64_SE BOM_R64_SW BOM_R64_NW BOM_ROCI BOM_POCI BOM_EYE BOM_POS_METHOD BOM_PRES_METHOD NADI_LAT NADI_LON NADI_CAT NADI_WIND NADI_PRES WELLINGTON_LAT WELLINGTON_LON WELLINGTON_WIND WELLINGTON_PRES DS824_LAT DS824_LON DS824_STAGE DS824_WIND DS824_PRES TD9636_LAT TD9636_LON TD9636_STAGE TD9636_WIND TD9636_PRES TD9635_LAT TD9635_LON TD9635_WIND TD9635_PRES TD9635_ROCI NEUMANN_LAT NEUMANN_LON NEUMANN_CLASS NEUMANN_WIND NEUMANN_PRES MLC_LAT MLC_LON MLC_CLASS MLC_WIND MLC_PRES USA_GUST BOM_GUST BOM_GUST_PER REUNION_GUST REUNION_GUST_PER USA_SEAHGT USA_SEARAD_NE USA_SEARAD_SE USA_SEARAD_SW USA_SEARAD_NW STORM_SPEED STORM_DIR
1959335S12065 1960 106 SI MM NOT_NAMED 1959-12-01 06:00:00 NR -12.3000 65.0000 reunion main 1169 1121 _____O________ -1 -12.3000 65.0000 99 9.90000 13 268
1959335S12065 1960 106 SI MM NOT_NAMED 1959-12-01 09:00:00 NR -12.3179 64.3331 main 1121 1121 _____P________ -1 -12.3179 64.3331 99 6 268
1959335S12065 1960 106 SI MM NOT_NAMED 1959-12-01 12:00:00 TS -12.3183 64.3367 main 1121 1054 O____P___OO___ jtwc_sh SH031960 -12.3000 65.0000 -1 -12.3366 63.6735 99 -12.3000 65.0000 TC -12.3000 65.0000 7 10 268
1959335S12065 1960 106 SI MM NOT_NAMED 1959-12-01 15:00:00 TS -12.3547 63.2916 main 1048 991 P____P___PP___ SH031960 -12.3450 63.3974 -1 -12.3582 63.0288 99 -12.3450 63.3974 TC -12.3671 63.6056 7 21 268
1959335S12065 1960 106 SI MM NOT_NAMED 1959-12-01 18:00:00 TS -12.4033 62.1940 main 986 933 O____P___OP___ jtwc_sh SH031960 -12.4000 62.0000 -1 -12.3854 62.4069 99 -12.4000 62.0000 TC -12.4338 62.2979 7 20 267
1959335S12065 1960 106 SI MM NOT_NAMED 1959-12-01 21:00:00 TS -12.4743 61.2306 main 928 894 P____P___PP___ SH031960 -12.4841 60.9702 -1 -12.4206 61.8155 99 -12.4841 60.9702 TC -12.5083 61.1665 7 16 264
1959335S12065 1960 106 SI MM NOT_NAMED 1959-12-02 00:00:00 TS -12.5666 60.5405 main 890 866 O____P___OO___ jtwc_sh SH031960 -12.6000 60.3000 -1 -12.4664 61.2622 99 -12.6000 60.3000 TC 25 -12.6000 60.3000 7 11 259
1959335S12065 1960 106 SI MM NOT_NAMED 1959-12-02 03:00:00 TS -12.6849 60.0855 main 866 847 P____P___PP___ SH031960 -12.7495 59.9174 -1 -12.5253 60.7545 99 -12.7495 59.9174 TC 25 -12.7154 59.7527 7 8 252
1959335S12065 1960 106 SI MM NOT_NAMED 1959-12-02 06:00:00 TS -12.8115 59.7863 reunion main 847 828 O____O___OP___ jtwc_sh SH031960 -12.9000 59.7000 -1 -12.6000 60.3000 99 9.90000 -12.9000 59.7000 TC 25 -12.8462 59.4451 7 6 248
1959335S12065 1960 106 SI MM NOT_NAMED 1959-12-02 09:00:00 TS -12.9214 59.4920 main 828 810 P____P___PP___ SH031960 -13.0075 59.3999 -1 -12.6919 59.9029 99 -13.0075 59.3999 TC 25 -12.9790 59.2650 7 6 249
1959335S12065 1960 106 SI MM NOT_NAMED 1959-12-02 12:00:00 TS -13.0242 59.2136 main 810 793 O____P___OO___ jtwc_sh SH031960 -13.1000 59.1000 -1 -12.7970 59.5542 99 -13.1000 59.1000 TC 25 -13.1000 59.1000 7 6 250
1959335S12065 1960 106 SI MM NOT_NAMED 1959-12-02 15:00:00 TS -13.1295 58.9128 main 793 778 P____P___PP___ SH031960 -13.2074 58.8075 -1 -12.9099 59.2418 99 -13.2074 58.8075 TC 25 -13.1932 58.7942 7 6 251
1959335S12065 1960 106 SI MM NOT_NAMED 1959-12-02 18:00:00 TS -13.2244 58.6084 main 778 763 O____P___OP___ jtwc_sh SH031960 -13.3000 58.5000 -1 -13.0252 58.9536 99 -13.3000 58.5000 TC 25 -13.2722 58.4798 7 6 254
1959335S12065 1960 106 SI MM NOT_NAMED 1959-12-02 21:00:00 TS -13.2981 58.2895 main 763 750 P____P___PP___ SH031960 -13.3574 58.1650 -1 -13.1375 58.6774 99 -13.3574 58.1650 TC 25 -13.3401 58.1505 7 7 258
1959335S12065 1960 106 SI MM NOT_NAMED 1959-12-03 00:00:00 TS -13.3603 57.9503 main 750 749 O____P___OO___ jtwc_sh SH031960 -13.4000 57.8000 -1 -13.2411 58.4011 99 -13.4000 57.8000 TC 25 -13.4000 57.8000 7 7 259
1959335S12065 1960 106 SI MM NOT_NAMED 1959-12-03 03:00:00 TS -13.4270 57.5884 main 749 738 P____P___PP___ SH031960 -13.4500 57.4075 -1 -13.3305 58.1127 99 -13.4500 57.4075 TC 25 -13.4774 57.4258 7 7 260
1959335S12065 1960 106 SI MM NOT_NAMED 1959-12-03 06:00:00 TS -13.4862 57.2076 reunion main 739 705 O____O___OP___ jtwc_sh SH031960 -13.5000 57.0000 -1 -13.4000 57.8000 99 9.90000 -13.5000 57.0000 TC 25 -13.5449 57.0303 7 8 261
1959335S12065 1960 106 SI MM NOT_NAMED 1959-12-03 09:00:00 TS -13.5417 56.8085 main 705 660 P____P___PP___ SH031960 -13.5649 56.6151 -1 -13.4473 57.3842 99 -13.5649 56.6151 TC 25 -13.5899 56.6196 7 8 264
1959335S12065 1960 106 SI MM NOT_NAMED 1959-12-03 12:00:00 TS -13.5694 56.3864 main 660 608 O____P___OO___ jtwc_sh SH031960 -13.6000 56.2000 -1 -13.4777 56.9455 99 -13.6000 56.2000 TC 25 -13.6000 56.2000 7 9 269
1959335S12065 1960 106 SI MM NOT_NAMED 1959-12-03 15:00:00 TS -13.5504 55.9061 main 608 571 P____P___PP___ SH031960 -13.5726 55.6925 -1 -13.4911 56.4940 99 -13.5726 55.6925 TC 25 -13.5652 55.7454 7 9 275
1959335S12065 1960 106 SI MM NOT_NAMED 1959-12-03 18:00:00 TS -13.4956 55.4324 main 561 525 O____P___OP___ jtwc_sh SH031960 -13.5000 55.2000 -1 -13.4872 56.0398 99 -13.5000 55.2000 TC 25 -13.4953 55.2897 7 9 279
1959335S12065 1960 106 SI MM NOT_NAMED 1959-12-03 21:00:00 TS -13.4209 55.0168 main 525 495 P____P___PP___ SH031960 -13.4074 54.8050 -1 -13.4661 55.5932 99 -13.4074 54.8050 TC 25 -13.4028 54.8641 7 8 282
1959335S12065 1960 106 SI MM NOT_NAMED 1959-12-04 00:00:00 TS -13.3319 54.6661 main 500 468 O____P___OO___ jtwc_sh SH031960 -13.3000 54.5000 -1 -13.4278 55.1642 99 -13.3000 54.5000 TC 25 -13.3000 54.5000 7 6 286
1959335S12065 1960 106 SI MM NOT_NAMED 1959-12-04 03:00:00 TS -13.2468 54.3884 main 470 448 P____P___PP___ SH031960 -13.1999 54.2775 -1 -13.3724 54.7631 99 -13.1999 54.2775 TC 25 -13.2149 54.2355 7 5 290
1959335S12065 1960 106 SI MM NOT_NAMED 1959-12-04 06:00:00 TS -13.1555 54.1582 reunion main 448 429 O____O___OP___ jtwc_sh SH031960 -13.1000 54.1000 -1 -13.3000 54.4000 99 9.90000 -13.1000 54.1000 TC 25 -13.1220 54.0328 7 5 293
1959335S12065 1960 106 SI MM NOT_NAMED 1959-12-04 09:00:00 TS -13.0646 53.9445 main 418 410 P____P___PP___ SH031960 -13.0075 53.9000 -1 -13.2253 54.1143 99 -13.0075 53.9000 TC 25 -13.0181 53.8636 7 5 296
1959335S12065 1960 106 SI MM NOT_NAMED 1959-12-04 12:00:00 TS -12.9583 53.7413 main 399 392 O____P___OO___ jtwc_sh SH031960 -12.9000 53.7000 -1 -13.1332 53.8653 99 -12.9000 53.7000 TC 25 -12.9000 53.7000 7 5 301
1959335S12065 1960 106 SI MM NOT_NAMED 1959-12-04 15:00:00 TS -12.8271 53.5393 main 384 374 P____P___PP___ SH031960 -12.7575 53.5000 -1 -13.0252 53.6450 99 -12.7575 53.5000 TC 25 -12.7683 53.5123 7 5 305
1959335S12065 1960 106 SI MM NOT_NAMED 1959-12-04 18:00:00 TS -12.6813 53.3421 main 366 358 O____P___OP___ jtwc_sh SH031960 -12.6000 53.3000 -1 -12.9028 53.4456 99 -12.6000 53.3000 TC 25 -12.6223 53.3226 7 5 309
1959335S12065 1960 106 SI MM NOT_NAMED 1959-12-04 21:00:00 TS -12.5144 53.1489 main 350 343 P____P___PP___ SH031960 -12.4125 53.1074 -1 -12.7676 53.2592 99 -12.4125 53.1074 TC 25 -12.4652 53.1217 7 5 308
1959335S12065 1960 106 SI MM NOT_NAMED 1959-12-05 00:00:00 TS -12.3803 52.9445 main 332 313 O____P___OO___ jtwc_sh SH031960 -12.3000 52.9000 -1 -12.6211 53.0780 99 -12.3000 52.9000 TC 25 -12.3000 52.9000 7 5 293
1959335S12065 1960 106 SI MM NOT_NAMED 1959-12-05 03:00:00 TS -12.3342 52.7188 main 313 292 P____P___PP___ SH031960 -12.3700 52.6651 -1 -12.4647 52.8942 99 -12.3700 52.6651 TC 25 -12.1322 52.6506 7 5 278
1959335S12065 1960 106 SI MM NOT_NAMED 1959-12-05 06:00:00 TS -12.3144 52.4700 reunion main 292 261 O____O___OP___ jtwc_sh SH031960 -12.5000 52.4000 -1 -12.3000 52.7000 99 9.90000 -12.5000 52.4000 TC 25 -11.9575 52.3800 7 5 275
1959335S12065 1960 106 SI MM NOT_NAMED 1959-12-05 09:00:00 TS -12.2873 52.1948 main 261 234 P____P___PP___ SH031960 -12.6250 52.1077 -1 -12.1203 52.4695 99 -12.6250 52.1077 TC 25 -11.7790 52.0944 7 6 284
1959335S12065 1960 106 SI MM NOT_NAMED 1959-12-05 12:00:00 TS -12.1821 51.9083 main 234 219 O____P___OO___ jtwc_sh SH031960 -12.6000 51.8000 -1 -11.9282 52.2334 99 -12.6000 51.8000 TC 25 -11.6000 51.8000 7 7 303
1959335S12065 1960 106 SI MM NOT_NAMED 1959-12-05 15:00:00 TS -11.9239 51.6226 main 222 218 P____P___PP___ SH031960 -12.2750 51.4999 -1 -11.7288 51.9917 99 -12.2750 51.4999 TC 25 -11.4169 51.4991 7 8 316
1959335S12065 1960 106 SI MM NOT_NAMED 1959-12-05 18:00:00 TS -11.5905 51.3342 main 217 205 O____P___OP___ jtwc_sh SH031960 -11.8000 51.2000 -1 -11.5271 51.7444 99 -11.8000 51.2000 TC 25 -11.2350 51.1925 7 9 320
1959335S12065 1960 106 SI MM NOT_NAMED 1959-12-05 21:00:00 TS -11.2535 51.0415 main 201 201 P____P___PP___ SH031960 -11.3125 50.8924 -1 -11.3284 51.4916 99 -11.3125 50.8924 TC 25 -11.0606 50.8897 7 9 318
1959335S12065 1960 106 SI MM NOT_NAMED 1959-12-06 00:00:00 TS -10.9594 50.7583 main 203 195 O____P___OO___ jtwc_sh SH031960 -10.9000 50.6000 -1 -11.1375 51.2333 99 -10.9000 50.6000 TC 25 -10.9000 50.6000 7 7 312
1959335S12065 1960 106 SI MM NOT_NAMED 1959-12-06 03:00:00 TS -10.7767 50.5007 main 195 191 P____P___PP___ SH031960 -10.6975 50.3427 -1 -10.9597 50.9695 99 -10.6975 50.3427 TC 25 -10.7523 50.3480 7 6 301
1959335S12065 1960 106 SI MM NOT_NAMED 1959-12-06 06:00:00 TS -10.6549 50.2519 reunion main 191 184 O____O___OP___ jtwc_sh SH031960 -10.6000 50.1000 -1 -10.8000 50.7000 99 9.90000 -10.6000 50.1000 TC 25 -10.6197 50.1077 7 5 296
1959335S12065 1960 106 SI MM NOT_NAMED 1959-12-06 09:00:00 TS -10.5358 50.0037 main 194 187 P____P___PP___ SH031960 -10.4925 49.8575 -1 -10.6560 50.4361 99 -10.4925 49.8575 TC 25 -10.5023 49.8635 7 6 294
1959335S12065 1960 106 SI MM NOT_NAMED 1959-12-06 12:00:00 TS -10.4316 49.7417 main 195 191 O____P___OO___ jtwc_sh SH031960 -10.4000 49.6000 -1 -10.5265 50.1670 99 -10.4000 49.6000 TC 25 -10.4000 49.6000 7 6 291
1959335S12065 1960 106 SI MM NOT_NAMED 1959-12-06 15:00:00 TS -10.3239 49.4546 main 202 201 P____P___PP___ SH031960 -10.2925 49.3150 -1 -10.4124 49.8918 99 -10.2925 49.3150 TC 25 -10.2984 49.2966 7 6 289
1959335S12065 1960 106 SI MM NOT_NAMED 1959-12-06 18:00:00 TS -10.2317 49.1456 main 213 213 O____P___OP___ jtwc_sh SH031960 -10.2000 49.0000 -1 -10.3144 49.6099 99 -10.2000 49.0000 TC 25 -10.2125 48.9725 7 7 284
1959335S12065 1960 106 SI MM NOT_NAMED 1959-12-06 21:00:00 TS -10.1622 48.8144 main 217 217 P____P___PP___ SH031960 -10.1350 48.6500 -1 -10.2334 49.3206 99 -10.1350 48.6500 TC 25 -10.1453 48.6371 7 7 280
1959335S12065 1960 106 SI MM NOT_NAMED 1959-12-07 00:00:00 TS -10.1175 48.4807 main 236 236 O____P___OO___ jtwc_sh SH031960 -10.1000 48.3000 -1 -10.1701 49.0230 99 -10.1000 48.3000 TC 25 -10.1000 48.3000 7 6 276
1959335S12065 1960 106 SI MM NOT_NAMED 1959-12-07 03:00:00 TS -10.0951 48.1739 main 249 249 P____P___PP___ SH031960 -10.0924 48.0000 -1 -10.1254 48.7164 99 -10.0924 48.0000 TC 25 -10.0702 47.9791 7 6 273
1959335S12065 1960 106 SI MM NOT_NAMED 1959-12-07 06:00:00 TS -10.0906 47.8644 reunion main 265 265 O____O___OP___ jtwc_sh SH031960 -10.1000 47.7000 -1 -10.1000 48.4000 99 9.90000 -10.1000 47.7000 TC 25 -10.0623 47.6575 7 6 271
1959335S12065 1960 106 SI MM NOT_NAMED 1959-12-07 09:00:00 TS -10.0849 47.5330 main 290 290 P____P___PP___ SH031960 -10.0925 47.3575 -1 -10.0812 48.0848 99 -10.0925 47.3575 TC 25 -10.0733 47.3322 7 7 270
1959335S12065 1960 106 SI MM NOT_NAMED 1959-12-07 12:00:00 TS -10.0956 47.1901 main 312 312 O____P___OO___ jtwc_sh SH031960 -10.1000 47.0000 -1 -10.0823 47.7604 99 -10.1000 47.0000 TC 25 -10.1000 47.0000 7 7 266
1959335S12065 1960 106 SI MM NOT_NAMED 1959-12-07 15:00:00 TS -10.1274 46.8499 main 344 343 P____P___PP___ SH031960 -10.1425 46.6500 -1 -10.1015 47.4263 99 -10.1425 46.6500 TC 25 -10.1232 46.6733 7 7 263
1959335S12065 1960 106 SI MM NOT_NAMED 1959-12-07 18:00:00 TS -10.1747 46.5049 main 359 359 O____P___OP___ jtwc_sh SH031960 -10.2000 46.3000 -1 -10.1367 47.0824 99 -10.2000 46.3000 TC 25 -10.1622 46.3373 7 7 262
1959335S12065 1960 106 SI MM NOT_NAMED 1959-12-07 21:00:00 TS -10.2228 46.1602 main 383 383 P____P___PP___ SH031960 -10.2424 45.9649 -1 -10.1862 46.7281 99 -10.2424 45.9649 TC 25 -10.2201 45.9826 7 7 261
1959335S12065 1960 106 SI MM NOT_NAMED 1959-12-08 00:00:00 TS -10.2869 45.7908 main 409 409 O____P___OO___ jtwc_sh SH031960 -10.3000 45.6000 -1 -10.2478 46.3632 99 -10.3000 45.6000 TC 25 -10.3000 45.6000 7 8 259
1959335S12065 1960 106 SI MM NOT_NAMED 1959-12-08 03:00:00 TS -10.3743 45.3720 main 439 439 P____P___PP___ SH031960 -10.3850 45.1650 -1 -10.3197 45.9873 99 -10.3850 45.1650 TC 25 -10.4076 45.1708 7 9 257
1959335S12065 1960 106 SI MM NOT_NAMED 1959-12-08 06:00:00 TS -10.4838 44.9288 reunion main 470 426 O____O___OP___ jtwc_sh SH031960 -10.5000 44.7000 -1 -10.4000 45.6000 99 9.90000 -10.5000 44.7000 TC 25 -10.5351 44.7152 7 9 255
1959335S12065 1960 106 SI MM NOT_NAMED 1959-12-08 09:00:00 TS -10.6146 44.4841 main 426 382 P____P___PP___ SH031960 -10.6499 44.2500 -1 -10.4885 45.1843 99 -10.6499 44.2500 TC 25 -10.6701 44.2520 7 9 253
1959335S12065 1960 106 SI MM NOT_NAMED 1959-12-08 12:00:00 TS -10.7472 44.0384 main 371 327 O____P___OO___ jtwc_sh SH031960 -10.8000 43.8000 -1 -10.5890 44.7535 99 -10.8000 43.8000 TC 25 -10.8000 43.8000 7 9 255
1959335S12065 1960 106 SI MM NOT_NAMED 1959-12-08 15:00:00 TS -10.8578 43.5872 main 327 284 P____P___PP___ SH031960 -10.9075 43.3350 -1 -10.6971 44.3137 99 -10.9075 43.3350 TC 25 -10.9193 43.3653 7 9 256
1959335S12065 1960 106 SI MM NOT_NAMED 1959-12-08 18:00:00 TS -10.9596 43.1547 main 284 240 O____P___OP___ jtwc_sh SH031960 -11.0000 42.9000 -1 -10.8084 43.8713 99 -11.0000 42.9000 TC 25 -11.0299 42.9476 7 8 255
1959335S12065 1960 106 SI MM NOT_NAMED 1959-12-08 21:00:00 TS -11.0685 42.7571 main 240 196 P____P___PP___ SH031960 -11.1149 42.5200 -1 -10.9186 43.4324 99 -11.1149 42.5200 TC 25 -11.1256 42.5560 7 8 255
1959335S12065 1960 106 SI MM NOT_NAMED 1959-12-09 00:00:00 TS -11.1559 42.4008 main 197 165 O____P___OO___ jtwc_sh SH031960 -11.2000 42.2000 -1 -11.0234 43.0033 99 -11.2000 42.2000 TC 25 -11.2000 42.2000 7 7 259
1959335S12065 1960 106 SI MM NOT_NAMED 1959-12-09 03:00:00 TS -11.1949 42.0910 main 165 132 P____P___PP___ SH031960 -11.2074 41.9424 -1 -11.1186 42.5904 99 -11.2074 41.9424 TC 25 -11.2463 41.8889 7 6 264
1959335S12065 1960 106 SI MM NOT_NAMED 1959-12-09 06:00:00 TS -11.2180 41.8031 reunion main 132 103 O____O___OP___ jtwc_sh SH031960 -11.2000 41.7000 -1 -11.2000 42.2000 99 9.90000 -11.2000 41.7000 TC 25 -11.2722 41.6123 7 6 264
1959335S12065 1960 106 SI MM NOT_NAMED 1959-12-09 09:00:00 TS -11.2608 41.4963 main 103 73 P____P___PP___ SH031960 -11.2500 41.4000 -1 -11.2563 41.8303 99 -11.2500 41.4000 TC 25 -11.2870 41.3546 7 6 262
1959335S12065 1960 106 SI MM NOT_NAMED 1959-12-09 12:00:00 TS -11.3001 41.1948 main 73 45 O____P___OO___ jtwc_sh SH031960 -11.3000 41.1000 -1 -11.3006 41.4791 99 -11.3000 41.1000 TC 25 -11.3000 41.1000 7 6 265
1959335S12065 1960 106 SI MM NOT_NAMED 1959-12-09 15:00:00 TS -11.3132 40.9207 main 45 24 P____P___PP___ SH031960 -11.2999 40.8500 -1 -11.3344 41.1469 99 -11.2999 40.8500 TC 25 -11.3187 40.8360 7 5 267
1959335S12065 1960 106 SI MM NOT_NAMED 1959-12-09 18:00:00 TS -11.3281 40.6636 main 24 0 O____P___OP___ jtwc_sh SH031960 -11.3000 40.6000 -1 -11.3593 40.8347 99 -11.3000 40.6000 TC 25 -11.3428 40.5626 7 5 265
1959335S12065 1960 106 SI MM NOT_NAMED 1959-12-09 21:00:00 TS -11.3599 40.3988 main 0 0 P____P___PP___ SH031960 -11.3376 40.3126 -1 -11.3768 40.5431 99 -11.3376 40.3126 TC 25 -11.3706 40.2829 7 5 263
1959335S12065 1960 106 SI MM NOT_NAMED 1959-12-10 00:00:00 TS -11.3934 40.1560 main 0 0 O____P___OO___ jtwc_sh SH031960 -11.4000 40.0000 -1 -11.3884 40.2730 99 -11.4000 40.0000 TC 25 -11.4000 40.0000 7 4 264
1959335S12065 1960 106 SI MM NOT_NAMED 1959-12-10 03:00:00 NR -11.3956 40.0250 main 0 0 _____P________ SH031960 -1 -11.3956 40.0250 99 TC 7 3 269
1959335S12065 1960 106 SI MM NOT_NAMED 1959-12-10 06:00:00 NR -11.4000 39.8000 reunion main 0 0 _____O________ -1 -11.4000 39.8000 99 9.90000 7 4 269
1959335S12065 1960 106 SI MM NOT_NAMED 1959-12-10 09:00:00 NR -11.4028 39.5981 main 0 0 _____P________ -1 -11.4028 39.5981 99 7 4 269
1959335S12065 1960 106 SI MM NOT_NAMED 1959-12-10 12:00:00 NR -11.4045 39.4170 main 0 0 _____P________ -1 -11.4045 39.4170 99 3 270
1959335S12065 1960 106 SI MM NOT_NAMED 1959-12-10 15:00:00 NR -11.4052 39.2536 main 0 0 _____P________ -1 -11.4052 39.2536 99 3 270
1959335S12065 1960 106 SI MM NOT_NAMED 1959-12-10 18:00:00 NR -11.4051 39.1051 main 0 0 _____P________ -1 -11.4051 39.1051 99 3 270
1959335S12065 1960 106 SI MM NOT_NAMED 1959-12-10 21:00:00 NR -11.4044 38.9684 main 0 0 _____P________ -1 -11.4044 38.9684 99 3 270
1959335S12065 1960 106 SI MM NOT_NAMED 1959-12-11 00:00:00 NR -11.4032 38.8407 main 0 0 _____P________ -1 -11.4032 38.8407 99 2 271
1959335S12065 1960 106 SI MM NOT_NAMED 1959-12-11 03:00:00 NR -11.4017 38.7189 main 0 0 _____P________ -1 -11.4017 38.7189 99 2 271
1959335S12065 1960 106 SI MM NOT_NAMED 1959-12-11 06:00:00 NR -11.4000 38.6000 reunion main 0 _____O________ -1 -11.4000 38.6000 99 9.90000 2 271

IBTrACS Databaseについて

本データベースは、米国NOAAが公開する1842年以降の世界の熱帯低気圧のベストトラックデータアーカイブInternational Best Track Archive for Climate Stewardship (IBTrACS)を、ウェブで閲覧しやすい形式に変換したものです。

最終更新日:2021-12-08